Upper Tract, West Virginia
Current Conditions -  °F | °C
As of 12:51 PM on Tuesday 21 Oct 2014 (Local Time) from KEKN Reporting Station
Light Rain Light Rain  
Wind Chill: 51°   Ceiling: 1500
Heat Index: 51°   Visibility: 4mi
Dew Point: 51°   Wind: 0mph
Humidity: 100%   Direction: NA
Pressure: 29.89"   Gusts: NA
Location:  38.79°N, 79.28°W
Report Text: KEKN 211651Z AUTO 00000KT 4SM -RA BR BKN015 OVC023 11/11 A2989 RMK AO2 SLP129 P0003 T01060106 TSNO
Loading
Personal Weather Stations






























Interactive Weather Map
Tropical Storm Tracking
New forecast layout! Learn more

10-Day Weather Forecast

Advertisements
Track Severe Weather on mobile